createdAt,value
2017-10-26T00:00:04.962Z,37.63
2017-10-26T00:02:33.320Z,36.63
2017-10-26T00:05:01.670Z,43.00
2017-10-26T00:07:30.072Z,36.53
2017-10-26T00:09:58.418Z,51.00
2017-10-26T00:12:26.775Z,40.27
2017-10-26T00:14:55.123Z,37.43
2017-10-26T00:17:23.515Z,39.73
2017-10-26T00:19:52.034Z,37.70
2017-10-26T00:22:20.378Z,37.80
2017-10-26T00:24:48.722Z,37.67
2017-10-26T00:27:17.078Z,44.27
2017-10-26T00:29:45.453Z,40.83
2017-10-26T00:32:13.844Z,45.10
2017-10-26T00:34:42.182Z,38.20
2017-10-26T00:37:10.546Z,44.17
2017-10-26T00:39:38.902Z,42.00
2017-10-26T00:42:07.292Z,41.97
2017-10-26T00:44:35.670Z,46.97
2017-10-26T00:47:04.090Z,44.87
2017-10-26T00:49:32.438Z,46.70
2017-10-26T00:52:00.824Z,48.67
2017-10-26T00:54:29.235Z,40.90
2017-10-26T00:56:57.582Z,50.33
2017-10-26T00:59:25.936Z,49.77
2017-10-26T01:01:54.291Z,51.63
2017-10-26T01:04:22.638Z,50.53
2017-10-26T01:06:51.071Z,52.43
2017-10-26T01:09:19.484Z,47.00
2017-10-26T01:11:47.863Z,45.97
2017-10-26T01:14:16.245Z,42.10
2017-10-26T01:16:44.595Z,47.80
2017-10-26T01:19:12.960Z,46.53
2017-10-26T01:21:41.324Z,47.77
2017-10-26T01:24:09.695Z,52.20
2017-10-26T01:26:38.063Z,59.23
2017-10-26T01:29:06.414Z,56.70
2017-10-26T01:31:34.773Z,66.10
2017-10-26T01:34:03.126Z,56.87
2017-10-26T01:36:31.519Z,58.97
2017-10-26T01:38:59.895Z,56.57
2017-10-26T01:41:28.246Z,56.23
2017-10-26T01:43:56.630Z,57.20
2017-10-26T01:46:24.988Z,57.70
2017-10-26T01:48:53.343Z,51.97
2017-10-26T01:51:21.759Z,55.37
2017-10-26T01:53:50.133Z,58.00
2017-10-26T01:56:18.530Z,57.03
2017-10-26T01:58:46.924Z,53.07
2017-10-26T02:01:15.299Z,63.67
2017-10-26T02:03:43.656Z,63.70
2017-10-26T02:06:12.039Z,60.70
2017-10-26T02:08:40.400Z,64.10
2017-10-26T02:11:08.780Z,56.73
2017-10-26T02:13:37.174Z,60.40
2017-10-26T02:16:05.561Z,59.63
2017-10-26T02:18:33.922Z,60.80
2017-10-26T02:21:02.315Z,62.10
2017-10-26T02:23:30.696Z,60.80
2017-10-26T02:25:59.100Z,60.60
2017-10-26T02:28:39.236Z,65.93
2017-10-26T02:31:19.355Z,65.53
2017-10-26T02:33:47.716Z,68.03
2017-10-26T02:36:16.116Z,69.57
2017-10-26T02:38:44.527Z,60.60
2017-10-26T02:41:12.904Z,64.60
2017-10-26T02:43:41.284Z,61.27
2017-10-26T02:46:09.630Z,62.03
2017-10-26T02:48:38.025Z,61.73
2017-10-26T02:51:06.394Z,68.40
2017-10-26T02:53:34.742Z,64.43
2017-10-26T02:56:03.178Z,68.73
2017-10-26T02:58:31.532Z,64.77
2017-10-26T03:00:59.928Z,61.60
2017-10-26T03:03:28.288Z,72.03
2017-10-26T03:05:56.686Z,64.07
2017-10-26T03:08:25.048Z,60.87
2017-10-26T03:10:53.386Z,65.77
2017-10-26T03:13:21.780Z,61.87
2017-10-26T03:15:50.126Z,60.10
2017-10-26T03:18:18.523Z,59.70
2017-10-26T03:20:46.884Z,68.97
2017-10-26T03:23:15.273Z,60.70
2017-10-26T03:25:43.659Z,58.50
2017-10-26T03:28:12.062Z,63.90
2017-10-26T03:30:40.413Z,54.67
2017-10-26T03:33:08.757Z,63.87
2017-10-26T03:35:37.120Z,57.90
2017-10-26T03:38:05.472Z,55.23
2017-10-26T03:40:33.856Z,59.50
2017-10-26T03:43:02.223Z,60.27
2017-10-26T03:45:30.604Z,50.80
2017-10-26T03:47:58.976Z,47.87
2017-10-26T03:50:27.362Z,49.10
2017-10-26T03:52:55.733Z,48.00
2017-10-26T03:55:24.149Z,48.80
2017-10-26T03:57:52.500Z,51.43
2017-10-26T04:00:20.856Z,51.00
2017-10-26T04:02:49.224Z,45.67
2017-10-26T04:05:17.603Z,46.03
2017-10-26T04:07:45.971Z,46.53
2017-10-26T04:10:14.351Z,55.13
2017-10-26T04:12:42.702Z,50.50
2017-10-26T04:15:11.079Z,46.80
2017-10-26T04:17:39.445Z,50.87
2017-10-26T04:20:07.847Z,50.80
2017-10-26T04:22:36.209Z,45.83
2017-10-26T04:25:04.561Z,48.53
2017-10-26T04:27:32.914Z,50.50
2017-10-26T04:30:01.283Z,55.53
2017-10-26T04:32:29.639Z,46.13
2017-10-26T04:34:57.999Z,52.37
2017-10-26T04:37:26.392Z,47.70
2017-10-26T04:39:54.739Z,53.43
2017-10-26T04:42:23.137Z,46.77
2017-10-26T04:44:51.499Z,51.87
2017-10-26T04:47:20.003Z,39.10
2017-10-26T04:49:48.341Z,45.40
2017-10-26T04:52:16.704Z,45.40
2017-10-26T04:54:45.063Z,50.63
2017-10-26T04:57:13.427Z,48.87
2017-10-26T04:59:41.816Z,46.43
2017-10-26T05:02:10.172Z,44.30
2017-10-26T05:04:38.563Z,47.43
2017-10-26T05:07:06.938Z,49.23
2017-10-26T05:09:35.329Z,44.97
2017-10-26T05:12:03.691Z,55.83
2017-10-26T05:14:32.088Z,46.37
2017-10-26T05:17:00.501Z,48.17
2017-10-26T05:19:28.895Z,51.77
2017-10-26T05:21:57.247Z,51.13
2017-10-26T05:24:25.623Z,50.60
2017-10-26T05:26:53.972Z,62.10
2017-10-26T05:29:22.366Z,47.50
2017-10-26T05:31:50.774Z,53.70
2017-10-26T05:34:19.140Z,46.50
2017-10-26T05:36:47.499Z,53.63
2017-10-26T05:39:15.856Z,53.30
2017-10-26T05:41:44.212Z,50.23
2017-10-26T05:44:12.598Z,55.67
2017-10-26T05:46:40.955Z,50.03
2017-10-26T05:49:09.353Z,55.03
2017-10-26T05:51:37.725Z,48.50
2017-10-26T05:54:06.078Z,45.10
2017-10-26T05:56:34.467Z,54.97
2017-10-26T05:59:02.860Z,49.83
2017-10-26T06:01:31.223Z,52.73
2017-10-26T06:03:59.612Z,50.47
2017-10-26T06:06:27.967Z,52.07
2017-10-26T06:08:56.322Z,49.07
2017-10-26T06:11:24.687Z,60.73
2017-10-26T06:13:53.067Z,56.97
2017-10-26T06:16:21.420Z,59.47
2017-10-26T06:18:49.779Z,51.70
2017-10-26T06:21:18.155Z,53.30
2017-10-26T06:23:46.546Z,60.57
2017-10-26T06:26:14.931Z,63.67
2017-10-26T06:28:43.283Z,69.03
2017-10-26T06:31:11.642Z,59.07
2017-10-26T06:33:40.037Z,52.30
2017-10-26T06:36:08.389Z,52.67
2017-10-26T06:38:36.811Z,56.07
2017-10-26T06:41:05.176Z,55.37
2017-10-26T06:43:33.555Z,52.30
2017-10-26T06:46:01.951Z,47.20
2017-10-26T06:48:30.307Z,51.60
2017-10-26T06:50:58.663Z,48.33
2017-10-26T06:53:27.050Z,52.10
2017-10-26T06:55:55.435Z,41.33
2017-10-26T06:58:23.796Z,47.60
2017-10-26T07:00:52.271Z,52.27
2017-10-26T07:03:20.650Z,49.00
2017-10-26T07:05:49.115Z,46.80
2017-10-26T07:08:17.506Z,47.87
2017-10-26T07:10:45.864Z,48.97
2017-10-26T07:13:14.238Z,50.03
2017-10-26T07:15:42.592Z,47.43
2017-10-26T07:18:10.984Z,46.47
2017-10-26T07:20:39.358Z,44.10
2017-10-26T07:23:07.710Z,45.97
2017-10-26T07:25:36.088Z,43.00
2017-10-26T07:28:04.446Z,44.90
2017-10-26T07:30:32.995Z,39.77
2017-10-26T07:33:01.343Z,43.27
2017-10-26T07:35:29.697Z,44.30
2017-10-26T07:37:58.046Z,39.23
2017-10-26T07:40:26.479Z,41.73
2017-10-26T07:42:54.867Z,39.67
2017-10-26T07:45:23.224Z,38.30
2017-10-26T07:47:51.603Z,41.67
2017-10-26T07:50:19.991Z,46.20
2017-10-26T07:52:48.369Z,44.33
2017-10-26T07:55:16.719Z,37.70
2017-10-26T07:57:45.162Z,39.20
2017-10-26T08:00:13.551Z,34.50
2017-10-26T08:02:41.989Z,35.20
2017-10-26T08:05:10.369Z,32.97
2017-10-26T08:07:38.727Z,37.47
2017-10-26T08:10:07.110Z,30.00
2017-10-26T08:12:35.479Z,32.57
2017-10-26T08:15:03.881Z,38.20
2017-10-26T08:17:32.246Z,32.87
2017-10-26T08:20:00.608Z,33.40
2017-10-26T08:22:28.952Z,33.07
2017-10-26T08:24:57.311Z,31.73
2017-10-26T08:27:25.684Z,25.67
2017-10-26T08:29:54.060Z,24.33
2017-10-26T08:32:22.443Z,19.40
2017-10-26T08:34:50.797Z,20.80
2017-10-26T08:37:19.153Z,21.17
2017-10-26T08:39:47.540Z,18.63
2017-10-26T08:42:15.888Z,18.70
2017-10-26T08:44:44.296Z,19.70
2017-10-26T08:47:12.647Z,21.10
2017-10-26T08:49:40.997Z,19.93
2017-10-26T08:52:09.371Z,21.57
2017-10-26T08:54:37.793Z,22.30
2017-10-26T08:57:06.267Z,24.10
2017-10-26T08:59:34.626Z,22.33
2017-10-26T09:02:02.970Z,23.07
2017-10-26T09:04:31.313Z,27.07
2017-10-26T09:06:59.658Z,24.63
2017-10-26T09:09:28.073Z,24.00
2017-10-26T09:11:56.414Z,23.20
2017-10-26T09:14:24.787Z,27.57
2017-10-26T09:16:53.164Z,22.77
2017-10-26T09:19:21.520Z,23.80
2017-10-26T09:21:49.873Z,20.63
2017-10-26T09:24:18.228Z,20.73
2017-10-26T09:26:46.598Z,22.70
2017-10-26T09:29:14.950Z,25.10
2017-10-26T09:31:43.299Z,15.70
2017-10-26T09:34:11.650Z,19.00
2017-10-26T09:36:39.996Z,20.10
2017-10-26T09:39:08.378Z,17.93
2017-10-26T09:41:36.727Z,14.40
2017-10-26T09:44:05.075Z,14.67
2017-10-26T09:46:33.414Z,15.23
2017-10-26T09:49:01.753Z,18.17
2017-10-26T09:51:30.106Z,12.37
2017-10-26T09:53:58.491Z,12.23
2017-10-26T09:56:26.882Z,15.00
2017-10-26T09:58:55.258Z,11.87
2017-10-26T10:01:23.666Z,17.33
2017-10-26T10:03:52.037Z,11.83
2017-10-26T10:06:20.386Z,16.17
2017-10-26T10:08:48.730Z,15.33
2017-10-26T10:11:17.997Z,14.47
2017-10-26T10:13:46.374Z,14.10
2017-10-26T10:16:27.710Z,18.53
2017-10-26T10:18:56.075Z,11.50
2017-10-26T10:21:24.464Z,12.87
2017-10-26T10:23:52.845Z,12.67
2017-10-26T10:26:21.218Z,18.97
2017-10-26T10:28:49.563Z,13.57
2017-10-26T10:31:17.926Z,15.20
2017-10-26T10:33:46.271Z,13.70
2017-10-26T10:36:14.610Z,12.30
2017-10-26T10:38:42.956Z,12.03
2017-10-26T10:41:11.299Z,11.67
2017-10-26T10:43:39.697Z,13.23
2017-10-26T10:46:08.050Z,13.87
2017-10-26T10:48:36.440Z,12.23
2017-10-26T10:51:05.693Z,11.57
2017-10-26T10:53:34.046Z,13.20
2017-10-26T10:56:02.391Z,9.60
2017-10-26T10:58:30.740Z,13.40
2017-10-26T11:00:59.095Z,12.60
2017-10-26T11:03:27.446Z,15.43
2017-10-26T11:05:55.842Z,17.37
2017-10-26T11:08:24.192Z,15.30
2017-10-26T11:10:52.571Z,13.30
2017-10-26T11:13:20.953Z,13.20
2017-10-26T11:15:49.303Z,14.73
2017-10-26T11:18:17.682Z,13.37
2017-10-26T11:20:46.068Z,12.60
2017-10-26T11:23:14.456Z,12.83
2017-10-26T11:25:42.806Z,11.73
2017-10-26T11:28:11.161Z,11.67
2017-10-26T11:30:39.508Z,12.30
2017-10-26T11:33:07.856Z,12.30
2017-10-26T11:35:36.206Z,13.40
2017-10-26T11:38:04.639Z,10.67
2017-10-26T11:40:33.011Z,10.53
2017-10-26T11:43:01.362Z,13.73
2017-10-26T11:45:29.693Z,9.63
2017-10-26T11:47:58.038Z,9.33
2017-10-26T11:50:26.425Z,9.77
2017-10-26T11:52:54.820Z,10.20
2017-10-26T11:55:23.187Z,12.63
2017-10-26T11:57:51.558Z,11.90
2017-10-26T12:00:19.943Z,9.70
2017-10-26T12:02:48.299Z,9.00
2017-10-26T12:05:16.630Z,9.97
2017-10-26T12:07:44.999Z,10.23
2017-10-26T12:10:13.349Z,7.60
2017-10-26T12:12:41.702Z,8.43
2017-10-26T12:15:10.039Z,9.07
2017-10-26T12:17:38.379Z,15.93
2017-10-26T12:20:06.724Z,8.37
2017-10-26T12:22:35.071Z,8.57
2017-10-26T12:25:03.441Z,8.57
2017-10-26T12:27:31.807Z,11.47
2017-10-26T12:30:00.147Z,12.57
2017-10-26T12:32:28.495Z,10.70
2017-10-26T12:34:56.836Z,7.83
2017-10-26T12:37:25.204Z,7.77
2017-10-26T12:39:53.575Z,16.33
2017-10-26T12:42:21.947Z,9.43
2017-10-26T12:44:50.288Z,9.67
2017-10-26T12:47:18.690Z,12.97
2017-10-26T12:49:47.058Z,10.17
2017-10-26T12:52:15.438Z,7.73
2017-10-26T12:54:43.779Z,7.70
2017-10-26T12:57:12.159Z,13.87
2017-10-26T12:59:40.490Z,7.43
2017-10-26T13:02:08.853Z,9.23
2017-10-26T13:04:37.215Z,11.10
2017-10-26T13:07:05.599Z,9.40
2017-10-26T13:09:33.934Z,11.40
2017-10-26T13:12:02.310Z,9.20
2017-10-26T13:14:30.657Z,7.67
2017-10-26T13:16:59.002Z,7.40
2017-10-26T13:19:27.358Z,7.40
2017-10-26T13:21:55.707Z,7.53
2017-10-26T13:24:24.074Z,6.97
2017-10-26T13:26:52.402Z,8.60
2017-10-26T13:29:20.748Z,13.50
2017-10-26T13:31:49.087Z,9.23
2017-10-26T13:34:17.557Z,10.03
2017-10-26T13:36:45.935Z,8.27
2017-10-26T13:39:14.275Z,9.60
2017-10-26T13:41:42.617Z,10.90
2017-10-26T13:44:11.015Z,16.90
2017-10-26T13:46:39.346Z,8.57
2017-10-26T13:49:07.680Z,9.77
2017-10-26T13:51:36.020Z,12.40
2017-10-26T13:54:04.391Z,17.60
2017-10-26T13:56:32.730Z,9.30
2017-10-26T13:59:01.213Z,11.77
2017-10-26T14:01:29.566Z,8.80
2017-10-26T14:03:57.953Z,9.70
2017-10-26T14:06:26.328Z,11.50
2017-10-26T14:08:55.498Z,8.60
2017-10-26T14:11:23.886Z,12.03
2017-10-26T14:13:52.239Z,8.00
2017-10-26T14:16:20.580Z,8.20
2017-10-26T14:18:49.115Z,11.43
2017-10-26T14:21:17.482Z,12.03
2017-10-26T14:23:45.856Z,12.43
2017-10-26T14:26:14.319Z,10.80
2017-10-26T14:28:42.735Z,17.63
2017-10-26T14:31:11.186Z,13.93
2017-10-26T14:33:39.560Z,11.50
2017-10-26T14:36:07.923Z,11.83
2017-10-26T14:38:36.291Z,15.47
2017-10-26T14:41:04.678Z,11.40
2017-10-26T14:43:33.029Z,13.00
2017-10-26T14:46:01.385Z,12.40
2017-10-26T14:48:29.740Z,9.83
2017-10-26T14:50:58.091Z,20.63
2017-10-26T14:53:26.445Z,15.23
2017-10-26T14:55:54.885Z,15.30
2017-10-26T14:58:23.252Z,12.57
2017-10-26T15:00:51.618Z,14.80
2017-10-26T15:03:19.975Z,10.80
2017-10-26T15:05:48.312Z,9.70
2017-10-26T15:08:16.677Z,10.60
2017-10-26T15:10:45.040Z,11.30
2017-10-26T15:13:13.416Z,10.20
2017-10-26T15:15:41.762Z,13.97
2017-10-26T15:18:10.128Z,12.90
2017-10-26T15:20:38.505Z,10.93
2017-10-26T15:23:06.847Z,10.83
2017-10-26T15:25:35.194Z,16.90
2017-10-26T15:28:03.539Z,15.13
2017-10-26T15:30:31.888Z,13.90
2017-10-26T15:33:00.253Z,11.37
2017-10-26T15:35:28.748Z,12.80
2017-10-26T15:37:57.114Z,14.80
2017-10-26T15:40:25.473Z,12.73
2017-10-26T15:42:53.834Z,13.20
2017-10-26T15:45:22.174Z,12.97
2017-10-26T15:47:50.540Z,15.57
2017-10-26T15:50:18.881Z,12.47
2017-10-26T15:52:47.252Z,12.30
2017-10-26T15:55:15.632Z,16.37
2017-10-26T15:57:43.979Z,14.40
2017-10-26T16:00:12.342Z,11.83
2017-10-26T16:02:40.748Z,10.93
2017-10-26T16:05:09.135Z,14.83
2017-10-26T16:07:37.487Z,11.90
2017-10-26T16:10:05.858Z,10.70
2017-10-26T16:12:34.202Z,14.27
2017-10-26T16:15:02.589Z,14.53
2017-10-26T16:17:30.946Z,11.73
2017-10-26T16:19:59.331Z,16.57
2017-10-26T16:22:27.700Z,13.23
2017-10-26T16:24:56.075Z,13.60
2017-10-26T16:27:24.414Z,13.90
2017-10-26T16:29:52.758Z,14.47
2017-10-26T16:32:21.145Z,13.60
2017-10-26T16:34:49.554Z,18.23
2017-10-26T16:37:17.966Z,21.40
2017-10-26T16:39:46.424Z,18.83
2017-10-26T16:42:14.784Z,19.00
2017-10-26T16:44:43.340Z,21.20
2017-10-26T16:47:11.835Z,19.70
2017-10-26T16:49:40.206Z,23.10
2017-10-26T16:52:08.590Z,20.90
2017-10-26T16:54:36.943Z,20.17
2017-10-26T16:57:05.322Z,15.97
2017-10-26T16:59:33.687Z,20.03
2017-10-26T17:02:02.975Z,21.83
2017-10-26T17:04:31.359Z,21.47
2017-10-26T17:06:59.708Z,22.40
2017-10-26T17:09:28.146Z,22.53
2017-10-26T17:11:56.509Z,20.90
2017-10-26T17:14:24.959Z,23.60
2017-10-26T17:16:53.309Z,19.00
2017-10-26T17:19:21.703Z,23.63
2017-10-26T17:21:50.089Z,22.23
2017-10-26T17:24:18.443Z,18.20
2017-10-26T17:26:46.799Z,19.30
2017-10-26T17:29:15.192Z,25.00
2017-10-26T17:31:43.563Z,25.63
2017-10-26T17:34:11.923Z,26.00
2017-10-26T17:36:41.210Z,22.50
2017-10-26T17:39:09.560Z,24.90
2017-10-26T17:41:37.931Z,21.20
2017-10-26T17:44:06.298Z,22.90
2017-10-26T17:46:34.803Z,26.73
2017-10-26T17:49:03.158Z,25.30
2017-10-26T17:51:31.512Z,26.77
2017-10-26T17:53:59.870Z,25.10
2017-10-26T17:56:28.260Z,27.37
2017-10-26T17:58:56.639Z,29.33
2017-10-26T18:01:24.980Z,32.43
2017-10-26T18:03:53.350Z,33.30
2017-10-26T18:08:48.306Z,34.40
2017-10-26T18:11:16.662Z,41.83
2017-10-26T18:13:45.043Z,41.43
2017-10-26T18:16:13.418Z,36.80
2017-10-26T18:18:41.776Z,37.67
2017-10-26T18:21:10.154Z,38.73
2017-10-26T18:23:38.542Z,67.03
2017-10-26T18:26:06.936Z,40.10
2017-10-26T18:28:35.322Z,43.47
2017-10-26T18:31:03.681Z,47.90
2017-10-26T18:33:32.036Z,47.07
2017-10-26T18:36:00.401Z,52.80
2017-10-26T18:38:28.751Z,49.83
2017-10-26T18:40:57.136Z,53.77
2017-10-26T18:43:25.506Z,54.97
2017-10-26T18:45:53.858Z,47.43
2017-10-26T18:48:22.211Z,46.10
2017-10-26T18:50:50.603Z,50.73
2017-10-26T18:53:18.972Z,55.67
2017-10-26T18:55:47.325Z,51.67
2017-10-26T18:58:15.687Z,56.20
2017-10-26T19:00:44.053Z,51.23
2017-10-26T19:03:12.467Z,60.70
2017-10-26T19:05:40.829Z,50.33
2017-10-26T19:08:09.197Z,61.17
2017-10-26T19:10:37.542Z,57.10
2017-10-26T19:13:05.935Z,55.73
2017-10-26T19:15:34.335Z,62.10
2017-10-26T19:18:02.679Z,60.40
2017-10-26T19:20:31.062Z,51.03
2017-10-26T19:22:59.419Z,54.67
2017-10-26T19:25:27.807Z,49.60
2017-10-26T19:27:56.178Z,57.67
2017-10-26T19:30:24.540Z,55.20
2017-10-26T19:32:52.944Z,58.67
2017-10-26T19:35:21.322Z,56.80
2017-10-26T19:37:49.687Z,58.87
2017-10-26T19:40:18.045Z,67.03
2017-10-26T19:42:46.432Z,59.77
2017-10-26T19:45:14.786Z,62.93
2017-10-26T19:47:43.147Z,62.77
2017-10-26T19:50:11.500Z,65.20
2017-10-26T19:52:39.897Z,61.90
2017-10-26T19:55:08.365Z,66.47
2017-10-26T19:57:36.757Z,72.97
2017-10-26T20:00:05.111Z,61.37
2017-10-26T20:02:33.511Z,73.20
2017-10-26T20:05:01.882Z,70.67
2017-10-26T20:07:30.239Z,70.07
2017-10-26T20:09:58.655Z,70.10
2017-10-26T20:12:27.023Z,75.17
2017-10-26T20:14:55.415Z,72.00
2017-10-26T20:17:23.776Z,65.87
2017-10-26T20:19:52.138Z,64.57
2017-10-26T20:22:20.825Z,66.07
2017-10-26T20:24:49.210Z,66.47
2017-10-26T20:27:18.041Z,38.10
2017-10-26T20:29:46.443Z,21.93
2017-10-26T20:32:14.799Z,25.87
2017-10-26T20:34:43.166Z,34.40
2017-10-26T20:37:11.540Z,33.67
2017-10-26T20:39:39.900Z,39.90
2017-10-26T20:42:08.254Z,54.33
2017-10-26T20:44:36.746Z,49.10
2017-10-26T20:47:05.128Z,53.30
2017-10-26T20:49:39.180Z,55.13
2017-10-26T20:52:13.312Z,55.13
2017-10-26T20:54:47.142Z,43.93
2017-10-26T20:57:21.128Z,44.23
2017-10-26T20:59:55.089Z,51.57
2017-10-26T21:02:29.106Z,41.43
2017-10-26T21:05:02.973Z,45.80
2017-10-26T21:07:36.947Z,47.07
2017-10-26T21:10:05.299Z,52.43
2017-10-26T21:15:40.780Z,40.43
2017-10-26T21:18:09.139Z,51.23
2017-10-26T21:20:37.773Z,47.60
2017-10-26T21:23:06.142Z,51.60
2017-10-26T21:25:34.543Z,50.77
2017-10-26T21:28:02.933Z,58.50
2017-10-26T21:30:31.315Z,53.13
2017-10-26T21:32:59.783Z,53.10
2017-10-26T21:35:28.134Z,56.10
2017-10-26T21:37:56.510Z,67.13
2017-10-26T21:40:24.880Z,53.07
2017-10-26T21:42:53.280Z,53.27
2017-10-26T21:45:21.635Z,60.30
2017-10-26T21:47:49.974Z,48.87
2017-10-26T21:50:18.334Z,52.17
2017-10-26T21:52:46.690Z,50.37
2017-10-26T21:55:15.086Z,44.40
2017-10-26T21:57:43.468Z,49.07
2017-10-26T22:00:11.841Z,46.87
2017-10-26T22:02:40.238Z,53.50
2017-10-26T22:05:08.595Z,50.03
2017-10-26T22:07:36.979Z,58.87
2017-10-26T22:10:05.334Z,53.57
2017-10-26T22:12:33.696Z,62.00
2017-10-26T22:15:02.064Z,62.57
2017-10-26T22:17:30.422Z,68.13
2017-10-26T22:19:58.807Z,68.73
2017-10-26T22:22:27.164Z,80.33
2017-10-26T22:24:55.533Z,86.57
2017-10-26T22:27:23.898Z,77.70
2017-10-26T22:29:52.273Z,84.53
2017-10-26T22:32:20.650Z,78.73
2017-10-26T22:34:49.005Z,79.73
2017-10-26T22:37:17.395Z,79.53
2017-10-26T22:39:45.775Z,72.40
2017-10-26T22:42:14.128Z,75.60
2017-10-26T22:44:42.483Z,65.37
2017-10-26T22:47:10.929Z,59.43
2017-10-26T22:49:39.302Z,63.53
2017-10-26T22:52:07.663Z,64.40
2017-10-26T22:54:36.022Z,63.63
2017-10-26T22:57:04.414Z,66.30
2017-10-26T22:59:32.768Z,69.97
2017-10-26T23:02:01.119Z,68.00
2017-10-26T23:04:29.484Z,70.10
2017-10-26T23:06:57.878Z,74.80
2017-10-26T23:09:26.251Z,75.60
2017-10-26T23:11:54.644Z,78.17
2017-10-26T23:14:23.141Z,81.83
2017-10-26T23:16:51.488Z,62.27
2017-10-26T23:19:19.844Z,69.37
2017-10-26T23:21:48.193Z,72.97
2017-10-26T23:24:16.575Z,69.37
2017-10-26T23:26:44.947Z,69.10
2017-10-26T23:29:13.323Z,78.83
2017-10-26T23:31:41.675Z,71.87
2017-10-26T23:34:10.280Z,72.53
2017-10-26T23:36:38.727Z,60.20
2017-10-26T23:39:07.119Z,65.33
2017-10-26T23:41:35.488Z,74.57
2017-10-26T23:44:03.840Z,58.07
2017-10-26T23:46:32.190Z,63.13
2017-10-26T23:49:00.579Z,64.33
2017-10-26T23:51:28.946Z,63.33
2017-10-26T23:53:57.335Z,70.93
2017-10-26T23:56:25.688Z,68.50
2017-10-26T23:58:54.104Z,52.80
